Time;durP1;ratioP1;P1;durP2;ratioP2;P2;SDS_P1;SDS_P2;PMS_P1;PMS_P2;Temp;Humidity;BMP_temperature;BMP_pressure;BME280_temperature;BME280_humidity;BME280_pressure;Samples;Min_cycle;Max_cycle;Signal;HPM_P1;HPM_P2
2024/04/24 00:01:06;;;;;;;6.37;4.47;;;;;;;4.70;100.00;100536.13;5268930;27;20241;-75
2024/04/24 00:03:37;;;;;;;6.10;4.17;;;;;;;4.71;100.00;100542.13;5271319;27;20320;-76
2024/04/24 00:06:06;;;;;;;6.33;4.20;;;;;;;4.69;100.00;100531.16;5266045;27;20285;-75
2024/04/24 00:08:34;;;;;;;6.47;4.73;;;;;;;4.66;100.00;100522.06;5268581;27;20358;-75
2024/04/24 00:11:02;;;;;;;6.13;4.17;;;;;;;4.65;100.00;100525.72;5271470;27;20232;-75
2024/04/24 00:13:30;;;;;;;7.47;4.20;;;;;;;4.65;100.00;100519.72;5263135;27;20762;-75
2024/04/24 00:15:58;;;;;;;8.37;5.03;;;;;;;4.62;100.00;100518.44;5270374;27;20362;-76
2024/04/24 00:18:26;;;;;;;9.07;4.60;;;;;;;4.61;100.00;100513.53;5268613;27;20256;-76
2024/04/24 00:20:58;;;;;;;7.83;4.80;;;;;;;4.59;100.00;100511.19;5270646;27;20384;-76
2024/04/24 00:23:27;;;;;;;7.13;5.00;;;;;;;4.58;100.00;100516.72;5236098;27;20352;-75
2024/04/24 00:25:57;;;;;;;9.00;4.77;;;;;;;4.55;100.00;100499.75;5273931;27;20232;-75
2024/04/24 00:28:25;;;;;;;7.83;5.00;;;;;;;4.54;100.00;100503.44;5267993;27;20318;-76
2024/04/24 00:30:58;;;;;;;11.70;5.20;;;;;;;4.52;100.00;100502.94;5264528;27;20361;-75
2024/04/24 00:33:27;;;;;;;7.33;4.70;;;;;;;4.51;100.00;100498.00;5268718;27;20253;-75
2024/04/24 00:35:55;;;;;;;7.13;4.87;;;;;;;4.49;100.00;100497.50;5262186;27;20254;-75
2024/04/24 00:38:25;;;;;;;7.60;4.80;;;;;;;4.47;100.00;100492.59;5269760;27;20301;-75
2024/04/24 00:40:53;;;;;;;7.23;4.43;;;;;;;4.45;100.00;100489.47;5270284;27;20615;-76
2024/04/24 00:43:21;;;;;;;7.97;4.73;;;;;;;4.45;100.00;100483.47;5269057;27;20703;-76
2024/04/24 00:45:50;;;;;;;7.00;5.20;;;;;;;4.42;100.00;100476.97;5268079;27;20794;-75
2024/04/24 00:48:18;;;;;;;8.17;5.00;;;;;;;4.41;100.00;100485.84;5269878;27;20363;-76
2024/04/24 00:50:47;;;;;;;9.13;4.83;;;;;;;4.38;100.00;100478.59;5274254;27;20348;-76
2024/04/24 00:53:15;;;;;;;8.20;5.30;;;;;;;4.37;100.00;100481.50;5270998;27;20355;-75
2024/04/24 00:55:46;;;;;;;7.60;4.87;;;;;;;4.34;100.00;100477.63;5269700;27;20304;-76
2024/04/24 00:58:16;;;;;;;6.83;4.70;;;;;;;4.30;100.00;100460.19;5271010;27;20264;-75
2024/04/24 01:00:45;;;;;;;8.30;5.50;;;;;;;4.28;100.00;100449.22;5270319;27;20334;-76
2024/04/24 01:03:14;;;;;;;8.10;4.77;;;;;;;4.27;100.00;100453.72;5333828;21;20433;-71
2024/04/24 01:05:42;;;;;;;9.20;5.90;;;;;;;4.25;100.00;100453.19;5366788;26;20238;-72
2024/04/24 01:08:10;;;;;;;8.77;5.43;;;;;;;4.23;100.00;100444.09;5364259;26;20341;-71
2024/04/24 01:10:38;;;;;;;8.43;5.13;;;;;;;4.21;100.00;100439.19;5364135;26;20287;-73
2024/04/24 01:13:08;;;;;;;10.10;5.17;;;;;;;4.20;100.00;100434.97;5361905;26;20276;-72
2024/04/24 01:15:39;;;;;;;6.50;4.83;;;;;;;4.18;100.00;100431.91;5337541;26;20255;-73
2024/04/24 01:18:07;;;;;;;7.00;5.20;;;;;;;4.16;100.00;100431.41;5328456;26;20282;-73
2024/04/24 01:20:36;;;;;;;8.63;5.13;;;;;;;4.15;100.00;100419.38;5331788;26;20765;-72
2024/04/24 01:23:23;;;;;;;7.63;5.43;;;;;;;4.14;100.00;100427.53;5328887;26;20718;-73
2024/04/24 01:25:59;;;;;;;10.07;5.70;;;;;;;4.12;100.00;100419.97;5333233;26;20788;-73
2024/04/24 01:28:29;;;;;;;7.77;5.00;;;;;;;4.09;100.00;100417.94;5336278;26;20258;-73
2024/04/24 01:30:57;;;;;;;7.37;5.23;;;;;;;4.07;100.00;100416.66;5309233;26;20296;-72
2024/04/24 01:33:25;;;;;;;7.90;5.23;;;;;;;4.05;100.00;100418.78;5323836;26;20632;-72
2024/04/24 01:35:53;;;;;;;8.33;5.27;;;;;;;4.04;100.00;100419.84;5334274;26;20235;-73
2024/04/24 01:38:21;;;;;;;9.23;5.20;;;;;;;4.01;100.00;100420.41;5330913;26;20242;-73
2024/04/24 01:40:47;;;;;;;8.97;5.80;;;;;;;3.99;100.00;100409.50;5331925;26;20615;-71
2024/04/24 01:43:15;;;;;;;8.40;5.43;;;;;;;3.98;100.00;100406.09;5344465;26;20247;-72
2024/04/24 01:45:46;;;;;;;10.67;6.30;;;;;;;3.95;100.00;100403.28;5325341;26;20841;-73
2024/04/24 01:48:14;;;;;;;9.60;5.20;;;;;;;3.94;100.00;100392.03;5326718;26;20370;-73
2024/04/24 01:50:42;;;;;;;8.63;5.30;;;;;;;3.93;100.00;100402.78;5319436;26;20242;-73
2024/04/24 01:53:10;;;;;;;8.63;5.93;;;;;;;3.91;100.00;100392.63;5333175;26;20338;-72
2024/04/24 01:55:38;;;;;;;8.33;5.77;;;;;;;3.91;100.00;100391.84;5319658;26;20713;-73
2024/04/24 01:58:07;;;;;;;9.57;5.63;;;;;;;3.89;100.00;100386.91;5323898;26;21009;-73
2024/04/24 02:00:35;;;;;;;6.93;5.03;;;;;;;3.88;100.00;100387.97;5327674;26;20770;-72
2024/04/24 02:03:06;;;;;;;8.73;5.97;;;;;;;3.87;100.00;100388.25;5325630;26;21022;-73
2024/04/24 02:05:34;;;;;;;10.17;6.03;;;;;;;3.86;100.00;100384.09;5330354;26;20274;-72
2024/04/24 02:08:02;;;;;;;8.53;5.60;;;;;;;3.86;100.00;100377.03;5328025;26;20853;-72
2024/04/24 02:10:30;;;;;;;7.80;5.57;;;;;;;3.85;100.00;100372.09;5296419;26;20557;-72
2024/04/24 02:12:58;;;;;;;10.70;6.10;;;;;;;3.83;100.00;100379.44;5332542;26;20285;-73
2024/04/24 02:15:26;;;;;;;8.83;5.87;;;;;;;3.82;100.00;100376.06;5335117;26;20287;-73
2024/04/24 02:17:54;;;;;;;10.60;5.27;;;;;;;3.81;100.00;100371.91;5305878;26;20289;-72
2024/04/24 02:20:25;;;;;;;7.60;5.40;;;;;;;3.80;100.00;100372.97;5333807;26;20357;-72
2024/04/24 02:22:53;;;;;;;10.57;6.07;;;;;;;3.79;100.00;100365.41;5330572;26;20275;-72
2024/04/24 02:25:33;;;;;;;10.40;6.03;;;;;;;3.78;100.00;100366.47;5327698;26;20310;-72
2024/04/24 02:28:02;;;;;;;8.77;6.00;;;;;;;3.78;100.00;100366.47;5309055;26;20281;-72
2024/04/24 02:30:30;;;;;;;10.27;6.00;;;;;;;3.77;100.00;100362.28;5319488;26;20255;-73
2024/04/24 02:32:55;;;;;;;10.33;6.40;;;;;;;3.76;100.00;100361.53;5309443;26;20240;-73
2024/04/24 02:35:27;;;;;;;8.37;5.70;;;;;;;3.76;100.00;100368.56;5308807;26;20267;-73
2024/04/24 02:37:55;;;;;;;8.13;5.73;;;;;;;3.76;100.00;100356.31;5336445;26;20732;-73
2024/04/24 02:40:24;;;;;;;9.03;6.00;;;;;;;3.76;100.00;100364.13;5342244;26;20249;-73
2024/04/24 02:42:52;;;;;;;10.10;6.03;;;;;;;3.77;100.00;100357.06;5324893;26;20290;-72
2024/04/24 02:45:20;;;;;;;10.00;6.23;;;;;;;3.77;100.00;100357.84;5334038;26;20263;-73
2024/04/24 02:47:48;;;;;;;8.73;6.40;;;;;;;3.76;100.00;100360.75;5338094;26;20780;-72
2024/04/24 02:50:16;;;;;;;9.00;6.87;;;;;;;3.75;100.00;100349.53;5327998;26;20251;-73
2024/04/24 02:52:47;;;;;;;9.87;6.03;;;;;;;3.75;100.00;100349.53;5326490;26;20360;-72
2024/04/24 02:55:15;;;;;;;10.77;6.60;;;;;;;3.75;100.00;100354.75;5321189;26;20247;-72
2024/04/24 02:57:43;;;;;;;9.50;6.17;;;;;;;3.74;100.00;100347.22;5332148;26;20293;-73
2024/04/24 03:00:12;;;;;;;10.23;6.63;;;;;;;3.73;100.00;100337.84;5325161;26;20307;-73
2024/04/24 03:02:40;;;;;;;10.67;6.80;;;;;;;3.72;100.00;100344.88;5321621;26;20287;-73
2024/04/24 03:05:08;;;;;;;11.00;6.73;;;;;;;3.72;100.00;100341.47;5310069;26;20267;-72
2024/04/24 03:07:34;;;;;;;13.33;7.10;;;;;;;3.69;100.00;100337.59;5311429;26;20298;-73
2024/04/24 03:10:05;;;;;;;8.83;6.77;;;;;;;3.67;100.00;100331.91;5332687;26;20820;-73
2024/04/24 03:12:33;;;;;;;9.43;6.60;;;;;;;3.67;100.00;100329.28;5329258;26;20282;-73
2024/04/24 03:15:01;;;;;;;12.67;6.73;;;;;;;3.66;100.00;100329.56;5335444;26;20290;-73
2024/04/24 03:17:29;;;;;;;11.80;6.47;;;;;;;3.64;100.00;100326.47;5329457;26;20311;-73
2024/04/24 03:19:57;;;;;;;12.03;6.83;;;;;;;3.63;100.00;100324.94;5332836;26;20295;-72
2024/04/24 03:22:25;;;;;;;9.27;6.13;;;;;;;3.60;100.00;100326.28;5326366;26;20282;-72
2024/04/24 03:24:53;;;;;;;7.57;5.60;;;;;;;3.57;100.00;100328.69;5320433;26;20721;-73
2024/04/24 03:27:24;;;;;;;10.73;6.67;;;;;;;3.56;100.00;100320.06;5320381;26;20277;-72
2024/04/24 03:29:52;;;;;;;9.40;6.20;;;;;;;3.53;100.00;100319.88;5328818;26;20849;-73
2024/04/24 03:32:20;;;;;;;11.13;6.63;;;;;;;3.50;100.00;100316.00;5342594;26;20900;-72
2024/04/24 03:34:48;;;;;;;9.47;5.73;;;;;;;3.47;100.00;100313.19;5333101;26;20259;-73
2024/04/24 03:37:16;;;;;;;11.70;6.63;;;;;;;3.45;100.00;100313.47;5325586;26;20256;-73
2024/04/24 03:39:44;;;;;;;11.30;6.30;;;;;;;3.43;100.00;100306.97;5337925;26;20238;-72
2024/04/24 03:42:12;;;;;;;10.00;6.60;;;;;;;3.41;100.00;100306.47;5318888;26;20508;-72
2024/04/24 03:44:42;;;;;;;10.43;6.30;;;;;;;3.38;100.00;100304.44;5302357;26;20820;-72
2024/04/24 03:47:10;;;;;;;11.17;6.47;;;;;;;3.37;100.00;100306.25;5320440;26;20320;-73
2024/04/24 03:49:38;;;;;;;13.83;6.63;;;;;;;3.36;100.00;100306.53;5329302;26;20738;-73
2024/04/24 03:52:07;;;;;;;8.83;6.70;;;;;;;3.33;100.00;100300.06;5332673;26;20313;-72
2024/04/24 03:54:35;;;;;;;9.67;6.57;;;;;;;3.31;100.00;100296.97;5332126;26;20246;-73
2024/04/24 03:57:03;;;;;;;9.43;6.67;;;;;;;3.29;100.00;100293.09;5320921;26;20385;-72
2024/04/24 03:59:31;;;;;;;9.97;6.53;;;;;;;3.28;100.00;100294.16;5332820;26;20283;-73
2024/04/24 04:02:01;;;;;;;9.33;6.70;;;;;;;3.25;100.00;100287.66;5328381;26;20254;-73
2024/04/24 04:04:29;;;;;;;11.57;7.00;;;;;;;3.24;100.00;100288.72;5330693;26;20290;-73
2024/04/24 04:06:57;;;;;;;10.23;7.37;;;;;;;3.22;100.00;100288.22;5307845;26;20310;-73
2024/04/24 04:09:25;;;;;;;14.30;8.20;;;;;;;3.21;100.00;100286.69;5340563;26;20294;-72
2024/04/24 04:11:53;;;;;;;12.10;7.27;;;;;;;3.20;100.00;100284.34;5328285;26;20294;-73
2024/04/24 04:14:22;;;;;;;12.03;7.50;;;;;;;3.18;100.00;100282.03;5355143;26;20652;-73
2024/04/24 04:16:49;;;;;;;12.63;7.60;;;;;;;3.18;100.00;100279.44;5349515;26;20296;-73
2024/04/24 04:19:20;;;;;;;12.30;7.30;;;;;;;3.18;100.00;100282.03;5338246;26;20377;-73
2024/04/24 04:21:49;;;;;;;11.27;6.93;;;;;;;3.19;100.00;100278.38;5351791;26;20318;-72
2024/04/24 04:24:17;;;;;;;12.67;7.93;;;;;;;3.20;100.00;100274.69;5347713;26;20243;-73
2024/04/24 04:26:46;;;;;;;15.73;8.10;;;;;;;3.23;100.00;100279.38;5323532;26;20286;-73
2024/04/24 04:29:14;;;;;;;10.70;7.63;;;;;;;3.25;100.00;100279.06;5352981;26;20283;-72
2024/04/24 04:31:42;;;;;;;12.00;8.03;;;;;;;3.28;100.00;100278.50;5338581;26;20253;-73
2024/04/24 04:34:10;;;;;;;11.67;7.23;;;;;;;3.32;100.00;100284.72;5362034;26;20270;-73
2024/04/24 04:36:40;;;;;;;16.33;7.70;;;;;;;3.33;100.00;100287.00;5341202;26;20277;-73
2024/04/24 04:39:08;;;;;;;11.63;7.30;;;;;;;3.37;100.00;100276.81;5333893;26;20347;-73
2024/04/24 04:41:36;;;;;;;13.97;7.33;;;;;;;3.41;100.00;100277.75;5349089;26;20247;-73
2024/04/24 04:44:04;;;;;;;10.83;6.93;;;;;;;3.45;100.00;100282.16;5340739;26;20363;-72
2024/04/24 04:46:33;;;;;;;10.47;7.00;;;;;;;3.50;100.00;100283.88;5327824;26;20393;-73
2024/04/24 04:49:01;;;;;;;13.50;7.50;;;;;;;3.56;100.00;100277.53;5337293;26;20297;-73
2024/04/24 04:51:28;;;;;;;10.60;7.47;;;;;;;3.59;100.00;100277.75;5323742;26;20336;-73
2024/04/24 04:53:59;;;;;;;11.20;8.43;;;;;;;3.64;100.00;100267.19;5325175;26;20340;-73
2024/04/24 04:56:28;;;;;;;11.80;7.53;;;;;;;3.72;100.00;100270.97;5320861;26;20256;-73
2024/04/24 04:58:56;;;;;;;11.07;7.70;;;;;;;3.77;100.00;100268.28;5319205;26;20291;-73
2024/04/24 05:01:24;;;;;;;10.53;7.30;;;;;;;3.82;100.00;100263.75;5332909;26;20366;-73
2024/04/24 05:03:52;;;;;;;12.63;7.20;;;;;;;3.88;100.00;100267.81;5331995;26;20251;-73
2024/04/24 05:06:20;;;;;;;14.73;9.47;;;;;;;3.95;100.00;100267.44;5313248;26;20800;-73
2024/04/24 05:08:48;;;;;;;13.57;8.07;;;;;;;4.01;100.00;100266.28;5323215;26;20361;-73
2024/04/24 05:11:18;;;;;;;13.47;7.63;;;;;;;4.07;100.00;100271.13;5340104;26;20249;-73
2024/04/24 05:13:47;;;;;;;14.53;8.17;;;;;;;4.14;100.00;100270.75;5333144;26;20319;-73
2024/04/24 05:16:15;;;;;;;10.93;7.43;;;;;;;4.19;100.00;100257.59;5341239;26;20713;-72
2024/04/24 05:18:43;;;;;;;13.07;7.23;;;;;;;4.23;100.00;100258.56;5330835;26;20341;-73
2024/04/24 05:21:11;;;;;;;12.30;7.90;;;;;;;4.28;100.00;100253.22;5327272;26;20729;-73
2024/04/24 05:23:39;;;;;;;10.50;7.60;;;;;;;4.31;100.00;100258.63;5323355;26;20724;-72
2024/04/24 05:29:07;;;;;;;13.03;7.90;;;;;;;4.40;100.00;100250.91;5300030;26;20242;-73
2024/04/24 05:31:36;;;;;;;15.27;7.77;;;;;;;4.44;100.00;100250.03;5328419;26;20281;-73
2024/04/24 05:34:05;;;;;;;17.23;7.70;;;;;;;4.47;100.00;100246.84;5329994;26;20255;-73
2024/04/24 05:36:33;;;;;;;13.53;7.87;;;;;;;4.50;100.00;100243.63;5334491;26;20239;-73
2024/04/24 05:39:01;;;;;;;10.53;7.00;;;;;;;4.54;100.00;100243.81;5324486;26;20238;-73
2024/04/24 05:41:29;;;;;;;11.17;7.47;;;;;;;4.58;100.00;100242.94;5330222;26;20246;-73
2024/04/24 05:44:00;;;;;;;11.17;7.40;;;;;;;4.63;100.00;100239.44;5329054;26;20327;-73
2024/04/24 05:46:28;;;;;;;12.27;7.53;;;;;;;4.69;100.00;100233.81;5338692;26;20244;-73
2024/04/24 05:48:56;;;;;;;12.30;8.20;;;;;;;4.76;100.00;100233.41;5331212;26;20417;-73
2024/04/24 05:51:24;;;;;;;12.43;7.10;;;;;;;4.82;100.00;100229.63;5337668;26;20298;-73
2024/04/24 05:53:52;;;;;;;13.23;7.60;;;;;;;4.88;100.00;100226.56;5330394;26;21646;-72
2024/04/24 05:56:20;;;;;;;13.67;8.13;;;;;;;4.96;100.00;100232.94;5332549;26;20441;-73
2024/04/24 05:58:49;;;;;;;12.90;7.50;;;;;;;5.02;100.00;100223.94;5298927;26;20285;-72
2024/04/24 06:01:20;;;;;;;12.60;7.87;;;;;;;5.08;100.00;100222.75;5335726;26;20300;-73
2024/04/24 06:03:48;;;;;;;15.27;7.93;;;;;;;5.13;100.00;100218.13;5334111;26;20373;-73
2024/04/24 06:06:16;;;;;;;11.47;7.23;;;;;;;5.17;100.00;100220.94;5322846;26;20667;-72
2024/04/24 06:08:44;;;;;;;11.37;7.27;;;;;;;5.20;100.00;100218.50;5318392;26;20250;-73
2024/04/24 06:11:12;;;;;;;12.63;7.47;;;;;;;5.22;100.00;100215.56;5333105;26;20369;-73
2024/04/24 06:13:40;;;;;;;11.57;8.00;;;;;;;5.25;100.00;100209.75;5326740;26;20250;-73
2024/04/24 06:16:08;;;;;;;13.20;8.40;;;;;;;5.27;100.00;100205.78;5338997;26;20293;-73
2024/04/24 06:18:39;;;;;;;15.67;8.97;;;;;;;5.31;100.00;100211.19;5330990;26;20256;-73
2024/04/24 06:21:07;;;;;;;12.63;8.20;;;;;;;5.34;100.00;100208.72;5341111;26;20684;-73
2024/04/24 06:23:35;;;;;;;10.60;7.43;;;;;;;5.38;100.00;100216.78;5332231;26;20246;-73
2024/04/24 06:26:03;;;;;;;13.40;7.63;;;;;;;5.43;100.00;100211.38;5334843;26;21989;-73
2024/04/24 06:28:31;;;;;;;15.87;8.43;;;;;;;5.50;100.00;100203.91;5342851;26;20288;-73
2024/04/24 06:30:59;;;;;;;13.80;8.50;;;;;;;5.56;100.00;100215.78;5328070;26;20538;-73
2024/04/24 06:33:27;;;;;;;13.37;8.57;;;;;;;5.64;100.00;100204.59;5321222;26;20910;-73
2024/04/24 06:35:58;;;;;;;14.80;8.07;;;;;;;5.71;100.00;100199.69;5336890;26;20369;-73
2024/04/24 06:38:26;;;;;;;10.53;7.60;;;;;;;5.78;100.00;100205.25;5338631;26;20235;-73
2024/04/24 06:40:54;;;;;;;10.93;7.33;;;;;;;5.88;100.00;100205.00;5321671;26;20311;-73
2024/04/24 06:43:22;;;;;;;13.50;8.17;;;;;;;5.95;100.00;100203.50;5330781;26;20273;-73
2024/04/24 06:45:50;;;;;;;12.23;7.73;;;;;;;6.03;100.00;100207.22;5329949;26;20273;-73
2024/04/24 06:48:18;;;;;;;11.30;7.70;;;;;;;6.07;100.00;100203.69;5329344;26;20792;-73
2024/04/24 06:50:46;;;;;;;18.40;8.23;;;;;;;6.15;100.00;100202.94;5331630;26;20632;-73
2024/04/24 06:53:16;;;;;;;12.33;8.23;;;;;;;6.23;100.00;100193.56;5335936;26;20290;-73
2024/04/24 06:55:44;;;;;;;14.53;8.73;;;;;;;6.30;100.00;100194.66;5328111;26;20286;-73
2024/04/24 06:58:12;;;;;;;12.97;7.27;;;;;;;6.36;100.00;100195.25;5327670;26;20246;-73
2024/04/24 07:00:40;;;;;;;11.97;7.50;;;;;;;6.42;100.00;100201.94;5333984;26;20238;-73
2024/04/24 07:03:08;;;;;;;11.50;7.17;;;;;;;6.49;100.00;100199.63;5336346;26;20299;-73
2024/04/24 07:05:37;;;;;;;13.90;7.33;;;;;;;6.56;100.00;100194.69;5336554;26;20733;-73
2024/04/24 07:08:07;;;;;;;11.70;8.07;;;;;;;6.62;100.00;100193.47;5329971;26;20250;-73
2024/04/24 07:10:38;;;;;;;12.87;7.47;;;;;;;6.68;100.00;100192.97;5323677;26;20629;-73
2024/04/24 07:13:07;;;;;;;11.77;7.40;;;;;;;6.77;100.00;100191.13;5300522;26;20297;-73
2024/04/24 07:15:35;;;;;;;13.07;7.73;;;;;;;6.85;100.00;100189.59;5330587;26;20649;-73
2024/04/24 07:18:03;;;;;;;11.20;7.57;;;;;;;6.93;100.00;100180.94;5332240;26;20922;-73
2024/04/24 07:20:31;;;;;;;11.87;7.93;;;;;;;7.01;100.00;100180.16;5339925;26;20780;-73
2024/04/24 07:22:59;;;;;;;13.83;7.87;;;;;;;7.08;100.00;100175.97;5371962;21;20265;-72
2024/04/24 07:25:27;;;;;;;11.27;6.97;;;;;;;7.17;100.00;100179.38;5355754;26;20779;-73
2024/04/24 07:27:57;;;;;;;10.53;7.07;;;;;;;7.25;100.00;100175.94;5352159;26;21721;-73
2024/04/24 07:30:25;;;;;;;10.20;7.40;;;;;;;7.36;100.00;100179.78;5350886;26;20233;-73
2024/04/24 07:32:53;;;;;;;12.93;7.57;;;;;;;7.44;100.00;100176.38;5351873;26;20336;-73
2024/04/24 07:35:21;;;;;;;10.57;7.63;;;;;;;7.52;100.00;100166.91;5351918;26;20247;-73
2024/04/24 07:37:51;;;;;;;11.27;7.37;;;;;;;7.62;100.00;100169.94;5340672;26;20750;-73
2024/04/24 07:40:19;;;;;;;10.27;7.53;;;;;;;7.71;100.00;100165.44;5344756;26;20276;-73
2024/04/24 07:42:47;;;;;;;11.33;7.80;;;;;;;7.82;100.00;100160.63;5342726;26;20294;-73
2024/04/24 07:45:17;;;;;;;12.40;7.03;;;;;;;7.92;100.00;100158.38;5348275;26;20309;-73
2024/04/24 07:47:45;;;;;;;12.40;7.53;;;;;;;8.04;100.00;100152.44;5346130;26;20245;-73
2024/04/24 07:50:13;;;;;;;14.37;7.77;;;;;;;8.15;100.00;100153.59;5350872;26;20320;-74
2024/04/24 07:52:42;;;;;;;11.70;7.40;;;;;;;8.27;100.00;100149.22;5347055;26;21076;-73
2024/04/24 07:55:10;;;;;;;12.40;7.27;;;;;;;8.41;100.00;100146.34;5358911;26;20372;-73
2024/04/24 07:57:38;;;;;;;11.80;7.23;;;;;;;8.48;100.00;100146.59;5358305;26;20694;-73
2024/04/24 08:00:07;;;;;;;10.57;7.00;;;;;;;8.55;100.00;100142.34;5363391;26;20738;-73
2024/04/24 08:02:42;;;;;;;9.10;6.77;;;;;;;8.65;100.00;100141.22;5356734;26;20235;-73
2024/04/24 08:05:10;;;;;;;10.20;7.17;;;;;;;8.73;100.00;100148.25;5357228;26;21032;-73
2024/04/24 08:07:38;;;;;;;12.27;7.00;;;;;;;8.82;100.00;100139.19;5354865;26;20242;-73
2024/04/24 08:10:04;;;;;;;10.53;7.40;;;;;;;8.90;100.00;100137.59;5356178;26;20774;-73
2024/04/24 08:12:32;;;;;;;11.77;7.87;;;;;;;8.97;100.00;100137.81;5355012;26;20278;-74
2024/04/24 08:15:00;;;;;;;12.30;8.33;;;;;;;9.05;100.00;100140.34;5359955;26;20246;-73
2024/04/24 08:17:28;;;;;;;9.90;7.33;;;;;;;9.10;100.00;100144.63;5359591;26;20238;-74
2024/04/24 08:19:58;;;;;;;10.37;7.03;;;;;;;9.18;100.00;100135.88;5357753;26;20339;-73
2024/04/24 08:22:26;;;;;;;10.43;6.80;;;;;;;9.27;100.00;100137.31;5356574;26;20284;-73
2024/04/24 08:24:55;;;;;;;10.10;6.57;;;;;;;9.36;100.00;100138.00;5357595;26;20296;-72
2024/04/24 08:27:23;;;;;;;11.63;6.67;;;;;;;9.46;100.00;100137.59;5362407;26;20346;-73
2024/04/24 08:29:50;;;;;;;9.50;6.37;;;;;;;9.58;100.00;100144.75;5353997;26;20276;-72
2024/04/24 08:32:18;;;;;;;7.70;6.23;;;;;;;9.67;100.00;100140.88;5354229;26;20237;-73
2024/04/24 08:34:47;;;;;;;8.03;6.20;;;;;;;9.77;100.00;100139.66;5357257;26;20276;-73
2024/04/24 08:37:17;;;;;;;8.43;6.17;;;;;;;9.91;100.00;100134.84;5357505;26;20295;-72
2024/04/24 08:39:45;;;;;;;8.10;5.30;;;;;;;9.99;100.00;100139.25;5358029;26;20823;-73
2024/04/24 08:42:13;;;;;;;9.33;5.80;;;;;;;10.06;100.00;100132.34;5360333;26;20335;-73
2024/04/24 08:44:44;;;;;;;7.53;6.03;;;;;;;10.16;100.00;100131.88;5356510;26;20245;-73
2024/04/24 08:47:13;;;;;;;5.97;4.60;;;;;;;10.26;98.79;100128.75;5359525;26;20354;-73
2024/04/24 08:49:44;;;;;;;6.30;5.00;;;;;;;10.35;95.39;100118.84;5353872;26;20288;-73
2024/04/24 08:52:18;;;;;;;7.67;5.73;;;;;;;10.45;81.79;100110.47;5355556;26;20242;-73
2024/04/24 08:54:47;;;;;;;6.17;5.00;;;;;;;10.56;84.67;100119.44;5362883;26;20234;-73
2024/04/24 08:57:16;;;;;;;5.13;4.60;;;;;;;10.63;100.00;100113.59;5359458;26;20253;-73
2024/04/24 08:59:45;;;;;;;6.67;4.80;;;;;;;10.68;100.00;100113.34;5355842;26;20246;-73
2024/04/24 09:02:13;;;;;;;4.97;3.70;;;;;;;10.77;100.00;100116.63;5358580;26;20277;-73
2024/04/24 09:04:43;;;;;;;5.47;4.10;;;;;;;10.86;68.42;100104.00;5356994;26;20349;-74
2024/04/24 09:07:11;;;;;;;7.53;3.77;;;;;;;10.96;100.00;100111.44;5357649;26;20328;-73
2024/04/24 09:09:42;;;;;;;4.10;3.53;;;;;;;11.01;100.00;100104.03;5354882;26;20638;-74
2024/04/24 09:12:11;;;;;;;5.33;4.07;;;;;;;11.05;68.43;100107.56;5354691;26;20245;-73
2024/04/24 09:14:39;;;;;;;4.50;3.57;;;;;;;11.12;63.06;100104.31;5355164;26;20467;-73
2024/04/24 09:17:07;;;;;;;4.17;3.77;;;;;;;11.15;66.92;100101.75;5362044;26;20360;-74
2024/04/24 09:19:37;;;;;;;6.47;3.57;;;;;;;11.23;100.00;100105.34;5356091;26;20284;-74
2024/04/24 09:22:05;;;;;;;3.73;3.00;;;;;;;11.28;58.30;100094.53;5361429;26;20245;-73
2024/04/24 09:24:33;;;;;;;3.97;3.20;;;;;;;11.34;100.00;100088.63;5359971;26;20349;-74
2024/04/24 09:27:05;;;;;;;3.60;2.83;;;;;;;11.40;75.79;100087.28;5357429;26;20313;-73
2024/04/24 09:29:33;;;;;;;3.57;2.97;;;;;;;11.44;58.70;100090.75;5355577;26;20588;-74
2024/04/24 09:32:01;;;;;;;5.17;3.20;;;;;;;11.51;63.25;100087.50;5351683;26;20869;-73
2024/04/24 09:34:29;;;;;;;3.43;3.13;;;;;;;11.56;55.32;100092.53;5358884;26;20761;-73
2024/04/24 09:36:57;;;;;;;8.43;3.70;;;;;;;11.66;59.03;100087.53;5359654;26;20287;-73
2024/04/24 09:39:26;;;;;;;4.07;3.47;;;;;;;11.81;65.62;100081.41;5356377;26;20980;-72
2024/04/24 09:41:54;;;;;;;4.70;3.20;;;;;;;11.93;61.58;100083.97;5360185;26;20301;-73
2024/04/24 09:44:28;;;;;;;3.73;3.40;;;;;;;12.02;51.76;100073.97;5356547;26;20250;-74
2024/04/24 09:46:57;;;;;;;3.63;3.23;;;;;;;12.09;61.36;100079.41;5356491;26;20284;-73
2024/04/24 09:49:25;;;;;;;3.50;2.93;;;;;;;12.18;60.65;100074.66;5358802;26;20673;-73
2024/04/24 09:51:53;;;;;;;3.87;3.00;;;;;;;12.30;57.23;100079.03;5358841;26;20242;-74
2024/04/24 09:54:23;;;;;;;3.87;2.80;;;;;;;12.40;51.78;100067.91;5362305;26;20380;-73
2024/04/24 09:56:56;;;;;;;2.70;2.40;;;;;;;12.49;49.02;100063.16;5356150;26;20250;-73
2024/04/24 09:59:31;;;;;;;6.00;2.70;;;;;;;12.69;82.54;100065.41;5359500;26;20330;-72
2024/04/24 10:02:04;;;;;;;2.90;2.43;;;;;;;12.82;82.48;100069.47;5357401;26;20241;-73
2024/04/24 10:04:33;;;;;;;21.93;4.90;;;;;;;13.03;54.32;100061.91;5358840;26;20514;-73
2024/04/24 10:07:05;;;;;;;3.37;2.17;;;;;;;13.26;72.21;100060.00;5355054;26;20339;-73
2024/04/24 10:09:36;;;;;;;5.40;3.47;;;;;;;13.41;49.78;100061.00;5358492;26;20248;-74
2024/04/24 10:12:08;;;;;;;2.53;2.17;;;;;;;13.50;46.51;100059.63;5356400;26;20804;-73
2024/04/24 10:14:44;;;;;;;2.30;2.10;;;;;;;13.68;46.27;100050.03;5353020;26;20411;-73
2024/04/24 10:17:13;;;;;;;2.77;2.30;;;;;;;13.74;47.61;100043.28;5352881;26;20356;-74
2024/04/24 10:19:45;;;;;;;2.63;2.40;;;;;;;13.86;55.65;100040.41;5349573;26;20632;-73
2024/04/24 10:22:13;;;;;;;3.83;2.20;;;;;;;13.99;45.17;100044.38;5357227;26;20587;-74
2024/04/24 10:24:44;;;;;;;2.67;2.17;;;;;;;14.08;52.19;100036.13;5356893;26;20225;-72
2024/04/24 10:27:14;;;;;;;2.60;2.40;;;;;;;14.17;45.67;100029.41;5356920;26;20786;-73
2024/04/24 10:29:45;;;;;;;2.83;2.17;;;;;;;14.20;41.19;100028.75;5353794;26;20239;-74
2024/04/24 10:32:15;;;;;;;3.03;2.37;;;;;;;14.35;53.62;100024.34;5357549;26;20669;-73
2024/04/24 10:34:44;;;;;;;3.03;1.90;;;;;;;14.44;66.13;100030.88;5336911;26;20245;-73
2024/04/24 10:37:12;;;;;;;3.90;2.30;;;;;;;14.51;48.91;100017.69;5348604;26;20354;-74
2024/04/24 10:39:44;;;;;;;2.47;2.27;;;;;;;14.70;64.90;100025.44;5349577;26;20656;-73
2024/04/24 10:42:12;;;;;;;2.30;2.00;;;;;;;14.82;64.27;100022.53;5349574;26;20280;-73
2024/04/24 10:44:40;;;;;;;5.00;2.70;;;;;;;14.90;46.53;100020.72;5348075;26;20253;-74
2024/04/24 10:47:11;;;;;;;3.10;1.90;;;;;;;14.93;39.00;100019.97;5349493;26;20623;-74
2024/04/24 10:49:42;;;;;;;2.80;2.33;;;;;;;14.96;41.71;100021.91;5344326;26;20280;-74
2024/04/24 10:52:10;;;;;;;3.17;1.90;;;;;;;14.92;41.17;100021.09;5358086;26;20249;-74
2024/04/24 10:54:41;;;;;;;2.20;2.00;;;;;;;14.84;40.70;100022.16;5341550;26;20951;-74
2024/04/24 10:57:07;;;;;;;3.30;2.40;;;;;;;14.62;38.21;100015.13;5348466;26;20233;-74
2024/04/24 10:59:36;;;;;;;2.20;1.93;;;;;;;14.66;47.90;100016.69;5348717;26;20641;-74
2024/04/24 11:02:19;;;;;;;3.00;2.20;;;;;;;14.50;39.67;100007.41;5344854;26;20321;-73
2024/04/24 11:04:47;;;;;;;4.60;2.40;;;;;;;14.35;41.63;100009.19;5351343;26;20254;-74
2024/04/24 11:07:17;;;;;;;2.00;1.80;;;;;;;14.37;43.61;100012.22;5355559;26;20245;-74
2024/04/24 11:09:46;;;;;;;3.53;1.80;;;;;;;14.36;65.41;100013.34;5350866;26;20599;-74
2024/04/24 11:12:14;;;;;;;10.83;3.07;;;;;;;14.21;38.89;100013.56;5354415;26;20309;-74
2024/04/24 11:14:43;;;;;;;3.30;2.00;;;;;;;14.20;47.03;100007.50;5354821;26;20288;-73
2024/04/24 11:17:11;;;;;;;3.00;1.87;;;;;;;14.12;40.22;99997.88;5350915;26;20301;-74
2024/04/24 11:19:42;;;;;;;5.00;2.50;;;;;;;14.10;42.39;100002.03;5350883;26;20826;-73
2024/04/24 11:22:10;;;;;;;2.50;1.90;;;;;;;14.02;36.08;100000.41;5358043;26;20260;-73
2024/04/24 11:24:38;;;;;;;2.57;2.10;;;;;;;13.96;44.54;100015.13;5357257;26;20245;-73
2024/04/24 11:27:06;;;;;;;4.70;2.83;;;;;;;13.88;40.75;100002.91;5356118;26;20249;-73
2024/04/24 11:29:40;;;;;;;2.60;2.40;;;;;;;13.80;43.09;100006.56;5359021;26;20371;-72
2024/04/24 11:32:10;;;;;;;4.50;2.37;;;;;;;13.75;49.25;100002.34;5359333;26;20350;-73